createdAt,value
2017-12-02T00:00:18.036Z,29.8
2017-12-02T00:02:17.777Z,26.4
2017-12-02T00:04:18.517Z,24.1
2017-12-02T00:06:17.274Z,24.9
2017-12-02T00:08:18.002Z,27
2017-12-02T00:10:17.780Z,24.6
2017-12-02T00:12:18.501Z,23.3
2017-12-02T00:16:17.958Z,25.5
2017-12-02T00:18:17.663Z,31.2
2017-12-02T00:20:18.434Z,27.1
2017-12-02T00:22:18.143Z,25.5
2017-12-02T00:24:17.894Z,27.1
2017-12-02T00:26:17.637Z,23.5
2017-12-02T00:28:18.359Z,26.1
2017-12-02T00:30:18.112Z,26.4
2017-12-02T00:32:17.828Z,24.9
2017-12-02T00:34:18.603Z,21.8
2017-12-02T00:36:17.316Z,24.9
2017-12-02T00:38:18.053Z,25.1
2017-12-02T00:40:17.788Z,23.7
2017-12-02T00:42:18.486Z,21.2
2017-12-02T00:44:18.272Z,22.6
2017-12-02T00:46:17.988Z,25.2
2017-12-02T00:48:17.723Z,25.2
2017-12-02T00:50:18.470Z,24.7
2017-12-02T00:52:18.201Z,22.8
2017-12-02T00:54:17.951Z,23.8
2017-12-02T00:56:17.682Z,28.4
2017-12-02T00:58:18.394Z,27
2017-12-02T01:00:18.144Z,24.1
2017-12-02T01:02:17.862Z,25
2017-12-02T01:04:18.618Z,26.3
2017-12-02T01:06:17.339Z,25.4
2017-12-02T01:08:18.112Z,22.1
2017-12-02T01:10:17.849Z,24.8
2017-12-02T01:12:18.619Z,24.2
2017-12-02T01:14:18.344Z,25.1
2017-12-02T01:16:17.123Z,26.3
2017-12-02T01:18:17.853Z,22.4
2017-12-02T01:20:18.592Z,22.9
2017-12-02T01:22:18.347Z,23
2017-12-02T01:24:18.116Z,24.1
2017-12-02T01:26:17.843Z,24.1
2017-12-02T01:28:18.613Z,28.2
2017-12-02T01:30:18.353Z,28.7
2017-12-02T01:32:18.093Z,19.6
2017-12-02T01:34:17.841Z,21.8
2017-12-02T01:36:17.594Z,25.7
2017-12-02T01:38:18.335Z,25.5
2017-12-02T01:40:18.081Z,26.6
2017-12-02T01:42:17.816Z,27.7
2017-12-02T01:44:18.578Z,26
2017-12-02T01:46:17.361Z,25.6
2017-12-02T01:48:18.076Z,22.8
2017-12-02T01:50:17.833Z,22.5
2017-12-02T01:52:18.570Z,24
2017-12-02T01:54:18.311Z,26.7
2017-12-02T01:56:18.077Z,21.8
2017-12-02T01:58:17.802Z,21.1
2017-12-02T02:00:18.545Z,21.4
2017-12-02T02:02:18.299Z,21.5
2017-12-02T02:04:18.040Z,23.6
2017-12-02T02:06:17.783Z,20.3
2017-12-02T02:08:18.547Z,21.1
2017-12-02T02:10:17.250Z,22
2017-12-02T02:12:17.970Z,21.9
2017-12-02T02:14:17.709Z,22.9
2017-12-02T02:16:17.421Z,20.7
2017-12-02T02:18:18.144Z,19.1
2017-12-02T02:20:17.900Z,22.6
2017-12-02T02:22:18.631Z,22.4
2017-12-02T02:24:18.374Z,23.8
2017-12-02T02:26:17.130Z,23.4
2017-12-02T02:28:17.880Z,20
2017-12-02T02:30:18.637Z,20
2017-12-02T02:32:18.351Z,21.1
2017-12-02T02:34:18.127Z,23.6
2017-12-02T02:36:17.848Z,22.7
2017-12-02T02:38:18.624Z,22.8
2017-12-02T02:40:17.354Z,22.6
2017-12-02T02:42:18.116Z,21
2017-12-02T02:44:17.824Z,22.5
2017-12-02T02:46:17.558Z,24.8
2017-12-02T02:48:18.319Z,22.9
2017-12-02T02:50:18.065Z,23
2017-12-02T02:52:17.816Z,25.1
2017-12-02T02:54:18.535Z,23.4
2017-12-02T02:56:18.276Z,24.1
2017-12-02T02:58:18.043Z,23.3
2017-12-02T03:00:17.768Z,27.8
2017-12-02T03:02:18.495Z,23.5
2017-12-02T03:06:17.009Z,23.5
2017-12-02T03:08:17.721Z,22
2017-12-02T03:10:17.470Z,21.8
2017-12-02T03:12:18.220Z,28.1
2017-12-02T03:14:17.951Z,23.2
2017-12-02T03:16:17.688Z,20.1
2017-12-02T03:18:18.427Z,22.7
2017-12-02T03:20:18.197Z,20.7
2017-12-02T03:22:17.929Z,25.7
2017-12-02T03:24:18.652Z,21.2
2017-12-02T03:26:17.451Z,22.3
2017-12-02T03:28:18.228Z,25.3
2017-12-02T03:30:17.984Z,20.7
2017-12-02T03:32:17.728Z,21.6
2017-12-02T03:34:18.506Z,22.1
2017-12-02T03:36:17.220Z,21.9
2017-12-02T03:38:17.977Z,24.3
2017-12-02T03:40:17.725Z,22.3
2017-12-02T03:42:18.460Z,21.4
2017-12-02T03:44:18.201Z,21.9
2017-12-02T03:46:17.975Z,20.9
2017-12-02T03:48:17.738Z,22.2
2017-12-02T03:52:17.236Z,22.7
2017-12-02T03:54:17.984Z,20.5
2017-12-02T03:56:17.743Z,21.3
2017-12-02T03:58:18.513Z,23.2
2017-12-02T04:00:18.273Z,19.4
2017-12-02T04:02:18.037Z,19.7
2017-12-02T04:04:17.800Z,18.7
2017-12-02T04:06:17.563Z,20.6
2017-12-02T04:08:18.297Z,21
2017-12-02T04:10:18.064Z,20.6
2017-12-02T04:12:17.808Z,21
2017-12-02T04:14:18.550Z,23.7
2017-12-02T04:16:17.317Z,23
2017-12-02T04:18:18.091Z,19.4
2017-12-02T04:20:17.855Z,22.9
2017-12-02T04:22:18.575Z,23.1
2017-12-02T04:24:18.340Z,24
2017-12-02T04:26:21.094Z,21.1
2017-12-02T04:28:17.841Z,21.3
2017-12-02T04:30:18.603Z,21.1
2017-12-02T04:32:18.359Z,19.8
2017-12-02T04:34:18.126Z,23.2
2017-12-02T04:36:17.876Z,21.8
2017-12-02T04:38:18.617Z,21.1
2017-12-02T04:40:17.347Z,22.6
2017-12-02T04:42:18.112Z,22.1
2017-12-02T04:44:17.889Z,21.9
2017-12-02T04:46:17.635Z,26
2017-12-02T04:48:18.371Z,20.5
2017-12-02T04:50:18.110Z,21
2017-12-02T04:52:17.874Z,23.5
2017-12-02T04:54:18.603Z,28.2
2017-12-02T04:56:17.343Z,22.9
2017-12-02T04:58:18.086Z,20.6
2017-12-02T05:00:17.846Z,23.2
2017-12-02T05:02:18.606Z,23.9
2017-12-02T05:04:18.342Z,23.3
2017-12-02T05:06:18.083Z,20.9
2017-12-02T05:08:17.848Z,25.6
2017-12-02T05:10:17.618Z,24.9
2017-12-02T05:12:18.347Z,23.6
2017-12-02T05:14:18.098Z,25.7
2017-12-02T05:16:17.873Z,22.4
2017-12-02T05:18:17.593Z,22
2017-12-02T05:20:18.315Z,22.1
2017-12-02T05:22:18.095Z,21.8
2017-12-02T05:24:17.854Z,25.3
2017-12-02T05:26:17.603Z,27.4
2017-12-02T05:28:18.339Z,24.2
2017-12-02T05:30:18.085Z,22.9
2017-12-02T05:32:17.826Z,25.2
2017-12-02T05:34:18.584Z,24
2017-12-02T05:36:17.339Z,31
2017-12-02T05:38:18.121Z,24.5
2017-12-02T05:40:17.856Z,25.2
2017-12-02T05:42:18.618Z,24.4
2017-12-02T05:44:18.387Z,22.8
2017-12-02T05:46:17.125Z,23.3
2017-12-02T05:48:17.867Z,21.5
2017-12-02T05:50:18.635Z,28.2
2017-12-02T05:52:18.374Z,24.1
2017-12-02T05:54:18.135Z,27.9
2017-12-02T05:56:17.902Z,24.3
2017-12-02T05:58:18.638Z,25.7
2017-12-02T06:00:18.380Z,28.4
2017-12-02T06:02:18.112Z,23.8
2017-12-02T06:04:17.899Z,26.4
2017-12-02T06:06:17.642Z,25
2017-12-02T06:08:18.386Z,24.3
2017-12-02T06:10:18.114Z,26.2
2017-12-02T06:12:20.864Z,25.8
2017-12-02T06:14:21.617Z,25.8
2017-12-02T06:16:17.375Z,24.8
2017-12-02T06:18:18.122Z,23.1
2017-12-02T06:20:17.870Z,24
2017-12-02T06:22:18.602Z,24.8
2017-12-02T06:24:18.320Z,26.4
2017-12-02T06:26:18.031Z,25.5
2017-12-02T06:28:20.785Z,29
2017-12-02T06:30:18.519Z,23.8
2017-12-02T06:32:18.270Z,23.2
2017-12-02T06:34:18.010Z,22.7
2017-12-02T06:36:17.728Z,24.9
2017-12-02T06:38:18.485Z,21.7
2017-12-02T06:40:17.213Z,22.7
2017-12-02T06:42:17.976Z,20.2
2017-12-02T06:44:17.727Z,22
2017-12-02T06:46:17.449Z,25.5
2017-12-02T06:48:18.186Z,24.4
2017-12-02T06:50:17.906Z,23.1
2017-12-02T06:52:18.673Z,20.9
2017-12-02T06:54:18.404Z,21.8
2017-12-02T06:56:18.111Z,23.6
2017-12-02T06:58:17.860Z,24.7
2017-12-02T07:00:18.611Z,24.2
2017-12-02T07:02:18.311Z,23.4
2017-12-02T07:04:21.065Z,24.3
2017-12-02T07:06:17.833Z,23.8
2017-12-02T07:08:18.619Z,27.3
2017-12-02T07:10:17.362Z,26.2
2017-12-02T07:12:18.106Z,25.3
2017-12-02T07:14:17.851Z,27.4
2017-12-02T07:16:17.625Z,25.1
2017-12-02T07:18:18.385Z,25.1
2017-12-02T07:20:18.114Z,30.1
2017-12-02T07:22:17.874Z,26.5
2017-12-02T07:24:18.639Z,25.3
2017-12-02T07:26:17.378Z,25.2
2017-12-02T07:28:18.150Z,26.8
2017-12-02T07:30:17.903Z,23.7
2017-12-02T07:32:18.663Z,27.1
2017-12-02T07:34:18.428Z,22.6
2017-12-02T07:36:17.182Z,25.3
2017-12-02T07:38:20.927Z,26
2017-12-02T07:40:17.731Z,26
2017-12-02T07:42:18.473Z,28.4
2017-12-02T07:44:18.240Z,25.4
2017-12-02T07:46:16.996Z,27.3
2017-12-02T07:48:17.784Z,26.8
2017-12-02T07:50:18.533Z,25.1
2017-12-02T07:52:18.304Z,25
2017-12-02T07:54:18.031Z,27.2
2017-12-02T07:56:17.813Z,27.1
2017-12-02T07:58:18.545Z,27.4
2017-12-02T08:00:18.325Z,27.1
2017-12-02T08:02:18.105Z,23.3
2017-12-02T08:04:17.842Z,26.6
2017-12-02T08:06:17.595Z,23.2
2017-12-02T08:08:18.353Z,22.7
2017-12-02T08:10:18.122Z,24
2017-12-02T08:12:17.880Z,26.1
2017-12-02T08:14:18.611Z,24.2
2017-12-02T08:16:17.349Z,24.5
2017-12-02T08:18:18.094Z,23
2017-12-02T08:20:17.821Z,27.7
2017-12-02T08:22:18.562Z,27.2
2017-12-02T08:24:18.306Z,23.9
2017-12-02T08:26:17.052Z,25.9
2017-12-02T08:28:17.808Z,26.6
2017-12-02T08:30:18.541Z,25.6
2017-12-02T08:32:18.298Z,27.3
2017-12-02T08:34:18.020Z,31.4
2017-12-02T08:36:17.773Z,28.4
2017-12-02T08:38:18.485Z,27
2017-12-02T08:40:17.219Z,30.6
2017-12-02T08:42:17.999Z,27.2
2017-12-02T08:44:17.927Z,27.3
2017-12-02T08:46:18.445Z,26.3
2017-12-02T08:48:18.190Z,26.1
2017-12-02T08:50:17.929Z,27.3
2017-12-02T08:52:18.685Z,22.6
2017-12-02T08:54:18.446Z,31.8
2017-12-02T08:56:17.173Z,27.4
2017-12-02T08:58:18.040Z,26.1
2017-12-02T09:00:17.677Z,78.6
2017-12-02T09:02:18.420Z,35.9
2017-12-02T09:04:18.189Z,26.3
2017-12-02T09:06:17.999Z,25.3
2017-12-02T09:08:17.679Z,23.9
2017-12-02T09:10:17.415Z,23.4
2017-12-02T09:12:18.170Z,27.9
2017-12-02T09:14:17.916Z,24.5
2017-12-02T09:16:17.633Z,24
2017-12-02T09:18:18.389Z,28.1
2017-12-02T09:20:18.104Z,25.7
2017-12-02T09:22:17.868Z,29.8
2017-12-02T09:24:18.579Z,26.8
2017-12-02T09:26:17.357Z,26.5
2017-12-02T09:28:18.074Z,31.5
2017-12-02T09:30:17.800Z,25.9
2017-12-02T09:32:18.577Z,27.8
2017-12-02T09:34:18.294Z,30.8
2017-12-02T09:36:18.029Z,23
2017-12-02T09:38:17.789Z,24.2
2017-12-02T09:40:17.551Z,24.2
2017-12-02T09:42:18.317Z,23.7
2017-12-02T09:44:18.039Z,24.1
2017-12-02T09:46:17.794Z,26.9
2017-12-02T09:48:18.558Z,23
2017-12-02T09:50:18.315Z,29.7
2017-12-02T09:52:18.081Z,21.7
2017-12-02T09:54:17.831Z,24.2
2017-12-02T09:56:17.602Z,26.6
2017-12-02T09:58:18.354Z,29
2017-12-02T10:00:18.110Z,24.4
2017-12-02T10:02:20.889Z,29.9
2017-12-02T10:06:17.461Z,27.1
2017-12-02T10:08:18.169Z,26
2017-12-02T10:10:17.983Z,28.4
2017-12-02T10:12:17.729Z,23.1
2017-12-02T10:14:18.455Z,23.2
2017-12-02T10:16:17.254Z,22.1
2017-12-02T10:20:17.760Z,22.6
2017-12-02T10:22:18.529Z,23.6
2017-12-02T10:24:18.289Z,25.4
2017-12-02T10:26:18.053Z,26.3
2017-12-02T10:28:17.778Z,27.2
2017-12-02T10:30:21.532Z,24.2
2017-12-02T10:32:21.302Z,22.7
2017-12-02T10:34:21.091Z,19
2017-12-02T10:36:17.868Z,19.6
2017-12-02T10:38:18.636Z,19.6
2017-12-02T10:40:17.393Z,16.1
2017-12-02T10:42:18.189Z,18.5
2017-12-02T10:44:17.945Z,21.6
2017-12-02T10:46:17.733Z,21.1
2017-12-02T10:48:18.480Z,18.8
2017-12-02T10:50:18.274Z,17.6
2017-12-02T10:52:18.022Z,17.7
2017-12-02T10:54:20.796Z,18
2017-12-02T10:56:17.588Z,19
2017-12-02T10:58:21.365Z,15.9
2017-12-02T11:00:18.136Z,17.3
2017-12-02T11:02:20.908Z,15.7
2017-12-02T11:04:18.661Z,16.8
2017-12-02T11:06:17.424Z,16.5
2017-12-02T11:08:21.204Z,16.5
2017-12-02T11:10:18.008Z,17.9
2017-12-02T11:12:17.766Z,16.4
2017-12-02T11:14:18.510Z,18.4
2017-12-02T11:16:17.290Z,17.6
2017-12-02T11:18:18.073Z,17.1
2017-12-02T11:20:17.822Z,17.4
2017-12-02T11:22:18.577Z,16.4
2017-12-02T11:24:21.352Z,16
2017-12-02T11:26:18.125Z,13.8
2017-12-02T11:28:20.907Z,16.5
2017-12-02T11:30:21.676Z,21.7
2017-12-02T11:32:21.471Z,19
2017-12-02T11:34:21.219Z,18.6
2017-12-02T11:36:17.025Z,19.6
2017-12-02T11:38:17.781Z,22.1
2017-12-02T11:40:17.569Z,23.7
2017-12-02T11:42:18.324Z,24.9
2017-12-02T11:44:21.081Z,21
2017-12-02T11:46:17.901Z,24.4
2017-12-02T11:48:18.668Z,27.6
2017-12-02T11:50:18.428Z,23.4
2017-12-02T11:52:18.195Z,21
2017-12-02T11:54:20.944Z,21.2
2017-12-02T11:56:17.777Z,19.4
2017-12-02T11:58:18.547Z,20.8
2017-12-02T12:00:18.344Z,28.5
2017-12-02T12:02:18.081Z,20.2
2017-12-02T12:04:20.893Z,20.7
2017-12-02T12:06:17.654Z,26.2
2017-12-02T12:08:18.411Z,20.2
2017-12-02T12:10:18.186Z,19.5
2017-12-02T12:12:21.055Z,19.4
2017-12-02T12:14:17.713Z,18.8
2017-12-02T12:16:17.529Z,20.2
2017-12-02T12:18:18.271Z,18.2
2017-12-02T12:20:18.030Z,16.5
2017-12-02T12:22:20.813Z,19.6
2017-12-02T12:24:18.546Z,18.5
2017-12-02T12:26:17.333Z,14.7
2017-12-02T12:28:18.086Z,14.2
2017-12-02T12:30:17.821Z,15
2017-12-02T12:32:18.595Z,17
2017-12-02T12:34:18.350Z,19
2017-12-02T12:36:17.094Z,17.2
2017-12-02T12:38:17.856Z,16.4
2017-12-02T12:40:17.570Z,16.7
2017-12-02T12:42:18.327Z,13.9
2017-12-02T12:44:21.093Z,19.6
2017-12-02T12:46:17.893Z,15.1
2017-12-02T12:48:18.651Z,13.8
2017-12-02T12:50:18.406Z,13
2017-12-02T12:52:18.166Z,13.1
2017-12-02T12:54:20.946Z,12.6
2017-12-02T12:56:17.737Z,15.9
2017-12-02T12:58:18.475Z,15.5
2017-12-02T13:00:18.250Z,15.6
2017-12-02T13:02:18.021Z,14.3
2017-12-02T13:04:17.783Z,15.9
2017-12-02T13:06:17.543Z,20.2
2017-12-02T13:08:18.307Z,13.3
2017-12-02T13:10:18.066Z,14
2017-12-02T13:12:20.830Z,14.1
2017-12-02T13:14:21.596Z,18.3
2017-12-02T13:16:18.368Z,16.9
2017-12-02T13:18:18.146Z,15.9
2017-12-02T13:20:17.926Z,15.4
2017-12-02T13:22:18.664Z,16.7
2017-12-02T13:24:18.400Z,18.1
2017-12-02T13:26:18.145Z,15.8
2017-12-02T13:28:17.916Z,20.5
2017-12-02T13:30:18.675Z,19.2
2017-12-02T13:32:18.403Z,17.4
2017-12-02T13:34:21.142Z,21.3
2017-12-02T13:36:17.935Z,17.5
2017-12-02T13:38:17.698Z,17.1
2017-12-02T13:40:17.444Z,19.2
2017-12-02T13:42:18.187Z,17.1
2017-12-02T13:44:17.972Z,18.5
2017-12-02T13:46:17.743Z,16.2
2017-12-02T13:48:18.478Z,16
2017-12-02T13:50:18.268Z,16.1
2017-12-02T13:52:18.012Z,17.5
2017-12-02T13:54:17.774Z,18.9
2017-12-02T13:56:17.516Z,17.4
2017-12-02T13:58:21.280Z,19.6
2017-12-02T14:00:18.068Z,17
2017-12-02T14:02:17.801Z,16.2
2017-12-02T14:04:18.558Z,19.3
2017-12-02T14:06:18.325Z,18.4
2017-12-02T14:08:18.075Z,23.1
2017-12-02T14:10:17.813Z,17.5
2017-12-02T14:12:18.591Z,20.2
2017-12-02T14:14:18.356Z,18.1
2017-12-02T14:16:17.128Z,27.5
2017-12-02T14:18:17.853Z,19.7
2017-12-02T14:20:18.621Z,19.7
2017-12-02T14:22:18.382Z,20.4
2017-12-02T14:24:18.118Z,20.8
2017-12-02T14:26:17.950Z,18.8
2017-12-02T14:28:17.604Z,19.7
2017-12-02T14:30:18.382Z,18
2017-12-02T14:32:18.131Z,20.5
2017-12-02T14:34:17.906Z,19.8
2017-12-02T14:36:17.631Z,19.2
2017-12-02T14:38:18.394Z,20.5
2017-12-02T14:40:18.137Z,23.4
2017-12-02T14:42:17.891Z,20
2017-12-02T14:44:18.652Z,22.6
2017-12-02T14:46:17.416Z,21.3
2017-12-02T14:48:18.172Z,24.8
2017-12-02T14:50:17.921Z,22.5
2017-12-02T14:52:21.713Z,28.2
2017-12-02T14:54:18.493Z,33.2
2017-12-02T14:56:17.215Z,30.2
2017-12-02T14:58:17.997Z,27.3
2017-12-02T15:00:17.737Z,25.5
2017-12-02T15:02:18.482Z,25.9
2017-12-02T15:04:18.253Z,22.7
2017-12-02T15:06:18.004Z,19.8
2017-12-02T15:08:20.769Z,21.7
2017-12-02T15:10:17.543Z,20.3
2017-12-02T15:12:18.294Z,21.2
2017-12-02T15:14:18.066Z,22.9
2017-12-02T15:16:17.819Z,29.4
2017-12-02T15:18:18.605Z,23.7
2017-12-02T15:20:18.351Z,20.7
2017-12-02T15:22:18.116Z,22.2
2017-12-02T15:24:17.881Z,21.9
2017-12-02T15:26:17.627Z,26.4
2017-12-02T15:28:21.384Z,23.8
2017-12-02T15:30:18.678Z,25.7
2017-12-02T15:32:17.950Z,22.1
2017-12-02T15:34:17.702Z,20
2017-12-02T15:36:17.486Z,23.8
2017-12-02T15:38:18.246Z,21.3
2017-12-02T15:40:18.002Z,22.6
2017-12-02T15:42:20.765Z,26
2017-12-02T15:44:21.537Z,24.1
2017-12-02T15:46:17.338Z,27
2017-12-02T15:48:18.100Z,32.5
2017-12-02T15:50:17.872Z,34.1
2017-12-02T15:52:18.649Z,32.2
2017-12-02T15:54:18.413Z,33
2017-12-02T15:56:18.169Z,22
2017-12-02T15:58:20.983Z,25.7
2017-12-02T16:00:17.714Z,25.6
2017-12-02T16:02:18.458Z,24.4
2017-12-02T16:04:21.202Z,23
2017-12-02T16:06:17.986Z,27.2
2017-12-02T16:08:20.743Z,24.8
2017-12-02T16:10:17.535Z,30.1
2017-12-02T16:12:18.292Z,25.1
2017-12-02T16:14:18.020Z,21.7
2017-12-02T16:16:17.812Z,21.8
2017-12-02T16:18:18.562Z,18.9
2017-12-02T16:20:18.325Z,24.3
2017-12-02T16:22:18.106Z,24.9
2017-12-02T16:24:17.914Z,25.1
2017-12-02T16:26:17.646Z,19.8
2017-12-02T16:28:18.380Z,17.1
2017-12-02T16:30:18.106Z,20.3
2017-12-02T16:32:20.870Z,19.7
2017-12-02T16:34:18.633Z,19.2
2017-12-02T16:36:17.392Z,18.8
2017-12-02T16:38:18.118Z,19.4
2017-12-02T16:40:17.912Z,22.1
2017-12-02T16:42:18.669Z,18.7
2017-12-02T16:44:18.380Z,17.5
2017-12-02T16:46:18.142Z,20.2
2017-12-02T16:48:17.876Z,16.6
2017-12-02T16:50:18.690Z,17.8
2017-12-02T16:52:18.411Z,19.9
2017-12-02T16:54:18.159Z,17.9
2017-12-02T16:56:16.886Z,22.6
2017-12-02T16:58:18.613Z,20.8
2017-12-02T17:00:18.371Z,19.4
2017-12-02T17:02:18.112Z,18.2
2017-12-02T17:04:17.864Z,17
2017-12-02T17:06:17.588Z,19.1
2017-12-02T17:08:21.330Z,20.4
2017-12-02T17:10:18.119Z,20
2017-12-02T17:12:17.855Z,17
2017-12-02T17:14:18.617Z,21.4
2017-12-02T17:16:17.353Z,17
2017-12-02T17:18:18.103Z,20.2
2017-12-02T17:20:17.911Z,15.9
2017-12-02T17:22:18.599Z,17.5
2017-12-02T17:24:18.369Z,17.8
2017-12-02T17:26:17.122Z,18.1
2017-12-02T17:28:17.883Z,19.6
2017-12-02T17:30:18.637Z,16.8
2017-12-02T17:32:18.386Z,20.1
2017-12-02T17:34:18.149Z,18
2017-12-02T17:36:17.891Z,16.6
2017-12-02T17:38:18.664Z,19.7
2017-12-02T17:40:17.399Z,20.7
2017-12-02T17:42:18.178Z,21.7
2017-12-02T17:44:17.916Z,19.7
2017-12-02T17:46:17.667Z,20.5
2017-12-02T17:48:18.431Z,19.6
2017-12-02T17:50:18.171Z,20
2017-12-02T17:52:17.888Z,18.1
2017-12-02T17:54:21.650Z,22.3
2017-12-02T17:56:18.418Z,24.4
2017-12-02T17:58:18.184Z,20
2017-12-02T18:00:17.915Z,16.6
2017-12-02T18:02:18.645Z,17.6
2017-12-02T18:04:18.380Z,16.5
2017-12-02T18:06:17.143Z,21.3
2017-12-02T18:08:17.884Z,20.9
2017-12-02T18:10:17.655Z,22.5
2017-12-02T18:12:18.364Z,18.4
2017-12-02T18:14:18.113Z,18.9
2017-12-02T18:16:17.899Z,18.4
2017-12-02T18:18:17.639Z,20.7
2017-12-02T18:20:18.377Z,20.3
2017-12-02T18:22:18.119Z,18.3
2017-12-02T18:24:17.875Z,20.5
2017-12-02T18:26:17.639Z,19.7
2017-12-02T18:28:18.376Z,15
2017-12-02T18:30:18.131Z,19.8
2017-12-02T18:32:17.919Z,21.2
2017-12-02T18:34:18.645Z,17.1
2017-12-02T18:36:17.384Z,17.2
2017-12-02T18:38:18.156Z,20.7
2017-12-02T18:40:17.895Z,17.2
2017-12-02T18:42:18.628Z,19.4
2017-12-02T18:44:18.378Z,21.5
2017-12-02T18:46:17.120Z,18.5
2017-12-02T18:48:17.880Z,19.1
2017-12-02T18:50:18.632Z,18.1
2017-12-02T18:52:18.371Z,22.1
2017-12-02T18:54:18.115Z,19.7
2017-12-02T18:56:17.893Z,18.6
2017-12-02T18:58:18.609Z,21.4
2017-12-02T19:00:18.352Z,24.5
2017-12-02T19:02:18.062Z,20.2
2017-12-02T19:04:17.825Z,19.7
2017-12-02T19:06:17.568Z,21.1
2017-12-02T19:08:18.280Z,25.3
2017-12-02T19:10:18.048Z,24.4
2017-12-02T19:12:17.747Z,26.8
2017-12-02T19:14:18.457Z,23.6
2017-12-02T19:16:18.206Z,22.8
2017-12-02T19:18:17.928Z,22.9
2017-12-02T19:20:18.635Z,22.1
2017-12-02T19:22:18.344Z,27.7
2017-12-02T19:24:18.099Z,24.3
2017-12-02T19:26:17.815Z,26
2017-12-02T19:28:18.537Z,21.7
2017-12-02T19:30:18.236Z,23.1
2017-12-02T19:32:17.951Z,21
2017-12-02T19:34:17.651Z,22.1
2017-12-02T19:36:17.385Z,19.1
2017-12-02T19:38:18.086Z,19.4
2017-12-02T19:40:17.814Z,17.8
2017-12-02T19:42:18.545Z,17.4
2017-12-02T19:44:18.259Z,17.3
2017-12-02T19:46:17.969Z,16.7
2017-12-02T19:48:17.703Z,18.4
2017-12-02T19:50:18.410Z,16.4
2017-12-02T19:52:18.169Z,17.5
2017-12-02T19:54:17.874Z,16.4
2017-12-02T19:56:17.610Z,20.6
2017-12-02T19:58:18.312Z,18.4
2017-12-02T20:00:18.036Z,20.3
2017-12-02T20:02:17.780Z,21.7
2017-12-02T20:04:18.489Z,24.3
2017-12-02T20:06:18.225Z,20.9
2017-12-02T20:08:17.969Z,17.1
2017-12-02T20:10:17.688Z,20.5
2017-12-02T20:12:18.425Z,18.3
2017-12-02T20:14:18.133Z,18.2
2017-12-02T20:16:20.832Z,20.4
2017-12-02T20:18:18.612Z,18.1
2017-12-02T20:20:18.308Z,21.1
2017-12-02T20:22:18.018Z,21.9
2017-12-02T20:24:17.738Z,17.1
2017-12-02T20:26:17.450Z,19.8
2017-12-02T20:28:18.149Z,16.8
2017-12-02T20:30:17.892Z,15.4
2017-12-02T20:32:18.573Z,16.6
2017-12-02T20:34:18.269Z,19.6
2017-12-02T20:36:16.983Z,15.5
2017-12-02T20:38:17.678Z,16.5
2017-12-02T20:40:17.392Z,20.1
2017-12-02T20:42:18.071Z,16.7
2017-12-02T20:44:17.816Z,18.7
2017-12-02T20:46:17.539Z,17.6
2017-12-02T20:48:18.244Z,17.2
2017-12-02T20:50:17.972Z,17.4
2017-12-02T20:52:17.631Z,17
2017-12-02T20:54:18.373Z,20.5
2017-12-02T20:56:18.068Z,21.3
2017-12-02T20:58:17.750Z,19
2017-12-02T21:00:18.436Z,19.1
2017-12-02T21:02:18.149Z,17.6
2017-12-02T21:04:17.887Z,19.3
2017-12-02T21:06:17.546Z,20.4
2017-12-02T21:08:18.260Z,17
2017-12-02T21:10:17.944Z,18.7
2017-12-02T21:12:17.675Z,18.8
2017-12-02T21:14:18.375Z,22.4
2017-12-02T21:16:18.056Z,19.4
2017-12-02T21:18:17.803Z,25.2
2017-12-02T21:20:18.454Z,20.2
2017-12-02T21:22:18.170Z,18.7
2017-12-02T21:24:17.859Z,19
2017-12-02T21:26:17.568Z,19.9
2017-12-02T21:28:18.286Z,25.7
2017-12-02T21:30:17.960Z,21.9
2017-12-02T21:32:17.640Z,22.2
2017-12-02T21:34:18.328Z,23.7
2017-12-02T21:36:18.037Z,27.7
2017-12-02T21:38:17.728Z,18.9
2017-12-02T21:40:17.426Z,25.8
2017-12-02T21:42:18.220Z,23.2
2017-12-02T21:44:17.852Z,19.9
2017-12-02T21:46:17.586Z,22
2017-12-02T21:48:18.282Z,23.1
2017-12-02T21:50:17.987Z,27.3
2017-12-02T21:52:17.693Z,23.2
2017-12-02T21:54:18.395Z,23.2
2017-12-02T21:56:18.106Z,21.5
2017-12-02T21:58:17.770Z,21.9
2017-12-02T22:00:18.511Z,20.3
2017-12-02T22:02:18.191Z,23.3
2017-12-02T22:04:17.900Z,23.9
2017-12-02T22:06:17.615Z,21.9
2017-12-02T22:08:18.336Z,22.6
2017-12-02T22:10:18.069Z,20.5
2017-12-02T22:12:17.740Z,23
2017-12-02T22:14:18.459Z,22.6
2017-12-02T22:16:17.189Z,21.6
2017-12-02T22:18:17.847Z,20.9
2017-12-02T22:20:18.588Z,23
2017-12-02T22:22:18.274Z,20.8
2017-12-02T22:24:17.998Z,20.9
2017-12-02T22:26:17.694Z,21.6
2017-12-02T22:28:18.413Z,23.3
2017-12-02T22:30:18.118Z,20.6
2017-12-02T22:32:17.846Z,21.6
2017-12-02T22:34:18.528Z,22.1
2017-12-02T22:36:17.228Z,21.8
2017-12-02T22:38:17.948Z,18.7
2017-12-02T22:40:17.644Z,20.7
2017-12-02T22:42:18.353Z,22.1
2017-12-02T22:44:18.052Z,22.5
2017-12-02T22:46:17.773Z,21.4
2017-12-02T22:48:18.461Z,21
2017-12-02T22:50:18.173Z,25.1
2017-12-02T22:52:17.881Z,23.2
2017-12-02T22:54:18.592Z,20.4
2017-12-02T22:56:18.288Z,23.7
2017-12-02T22:58:17.987Z,22.8
2017-12-02T23:00:17.680Z,26.4
2017-12-02T23:02:18.367Z,22.4
2017-12-02T23:04:18.099Z,24.1
2017-12-02T23:06:17.781Z,22.5
2017-12-02T23:08:18.472Z,21.2
2017-12-02T23:10:17.201Z,20.3
2017-12-02T23:12:17.894Z,22.2
2017-12-02T23:14:18.575Z,21.1
2017-12-02T23:16:17.275Z,24.5
2017-12-02T23:18:17.952Z,20.1
2017-12-02T23:20:17.633Z,23.5
2017-12-02T23:22:18.327Z,22.4
2017-12-02T23:24:18.045Z,23.3
2017-12-02T23:26:17.714Z,23.1
2017-12-02T23:28:18.393Z,22.1
2017-12-02T23:30:18.112Z,23.8
2017-12-02T23:32:17.797Z,23.1
2017-12-02T23:34:18.515Z,23.6
2017-12-02T23:36:17.177Z,24.7
2017-12-02T23:38:17.882Z,23.9
2017-12-02T23:40:17.563Z,22.3
2017-12-02T23:42:18.272Z,21.9
2017-12-02T23:44:17.916Z,21.6
2017-12-02T23:46:17.598Z,23
2017-12-02T23:48:18.307Z,22.1
2017-12-02T23:50:17.970Z,23.4
2017-12-02T23:52:17.675Z,21.1
2017-12-02T23:54:18.349Z,25.6
2017-12-02T23:56:17.066Z,21.3
2017-12-02T23:58:17.747Z,23.9
